Time;durP1;ratioP1;P1;durP2;ratioP2;P2;SDS_P1;SDS_P2;PMS_P1;PMS_P2;Temp;Humidity;BMP_temperature;BMP_pressure;BME280_temperature;BME280_humidity;BME280_pressure;Samples;Min_cycle;Max_cycle;Signal;HPM_P1;HPM_P2
2022/08/12 00:43:26;;;;;;;13.27;6.15;;;;;;;;;;5056985;28;20033;-74
2022/08/12 00:48:37;;;;;;;11.52;6.30;;;;;;;;;;5056933;28;20039;-73
2022/08/12 00:51:04;;;;;;;11.05;6.18;;;;;;;;;;5056306;28;20114;-74
2022/08/12 00:53:30;;;;;;;8.10;5.88;;;;;;;;;;5056275;28;20032;-74
2022/08/12 00:55:57;;;;;;;14.40;6.88;;;;;;;;;;5056477;28;20025;-73
2022/08/12 00:58:24;;;;;;;13.85;6.15;;;;;;;;;;5038130;28;20028;-73
2022/08/12 01:00:51;;;;;;;8.57;5.88;;;;;;;;;;5056555;28;20065;-73
2022/08/12 01:03:21;;;;;;;12.15;6.53;;;;;;;;;;5056607;28;20075;-74
2022/08/12 01:11:31;;;;;;;9.00;5.97;;;;;;;;;;5057069;28;20040;-73
2022/08/12 01:13:58;;;;;;;9.13;6.28;;;;;;;;;;5056498;28;20021;-73
2022/08/12 01:16:25;;;;;;;15.93;6.93;;;;;;;;;;5055773;28;20021;-73
2022/08/12 01:18:52;;;;;;;10.35;7.15;;;;;;;;;;5037776;28;20083;-74
2022/08/12 01:21:27;;;;;;;10.68;6.82;;;;;;;;;;5037874;28;20024;-73
2022/08/12 01:24:12;;;;;;;11.25;6.30;;;;;;;;;;5055926;28;20473;-73
2022/08/12 01:26:40;;;;;;;11.15;6.70;;;;;;;;;;5055579;28;20025;-74
2022/08/12 01:29:06;;;;;;;9.77;6.70;;;;;;;;;;5055854;28;20028;-73
2022/08/12 01:31:35;;;;;;;10.63;5.88;;;;;;;;;;5055744;28;20056;-74
2022/08/12 01:34:06;;;;;;;10.52;6.45;;;;;;;;;;5055943;28;20033;-73
2022/08/12 01:36:43;;;;;;;8.80;6.43;;;;;;;;;;5055376;28;20028;-73
2022/08/12 01:39:09;;;;;;;9.88;6.40;;;;;;;;;;5055891;28;20021;-73
2022/08/12 01:41:39;;;;;;;13.68;6.72;;;;;;;;;;5055826;28;20021;-73
2022/08/12 01:44:05;;;;;;;;;;;;;;;;;;5037407;28;20031;-74
2022/08/12 01:46:39;;;;;;;9.00;6.32;;;;;;;;;;5055447;28;19950;-73
2022/08/12 01:49:19;;;;;;;7.47;5.63;;;;;;;;;;5055538;28;20044;-73
2022/08/12 01:51:49;;;;;;;11.63;6.95;;;;;;;;;;5055719;28;20485;-73
2022/08/12 01:54:16;;;;;;;10.13;6.07;;;;;;;;;;5054919;28;20053;-74
2022/08/12 01:56:51;;;;;;;9.65;6.45;;;;;;;;;;5055271;28;20389;-73
2022/08/12 02:02:10;;;;;;;9.73;5.97;;;;;;;;;;5055485;28;20083;-74
2022/08/12 02:13:14;;;;;;;13.32;6.72;;;;;;;;;;5054774;28;20051;-73
2022/08/12 02:15:59;;;;;;;12.40;6.18;;;;;;;;;;5054711;28;20053;-73
2022/08/12 02:18:39;;;;;;;9.98;6.78;;;;;;;;;;5036442;28;20036;-73
2022/08/12 02:21:10;;;;;;;8.50;6.35;;;;;;;;;;5054914;28;20404;-74
2022/08/12 02:23:36;;;;;;;8.85;6.47;;;;;;;;;;5054850;28;20025;-73
2022/08/12 02:26:07;;;;;;;10.25;6.18;;;;;;;;;;5054461;28;20044;-73
2022/08/12 02:28:33;;;;;;;9.05;6.80;;;;;;;;;;5054410;28;20021;-73
2022/08/12 02:31:03;;;;;;;9.57;7.07;;;;;;;;;;5054667;28;20140;-72
2022/08/12 02:33:32;;;;;;;9.70;6.53;;;;;;;;;;5036820;28;20108;-73
2022/08/12 02:36:00;;;;;;;9.52;6.72;;;;;;;;;;5054652;28;20043;-73
2022/08/12 02:38:27;;;;;;;8.82;6.88;;;;;;;;;;5054199;28;20025;-73
2022/08/12 02:40:53;;;;;;;10.00;7.28;;;;;;;;;;5054279;28;20024;-73
2022/08/12 02:43:22;;;;;;;10.43;7.10;;;;;;;;;;5054470;28;20025;-73
2022/08/12 02:45:52;;;;;;;11.23;6.93;;;;;;;;;;5036289;28;20051;-73
2022/08/12 02:48:29;;;;;;;11.65;7.10;;;;;;;;;;5054703;28;20438;-73
2022/08/12 02:50:56;;;;;;;7.97;6.82;;;;;;;;;;5035883;28;20451;-73
2022/08/12 02:53:22;;;;;;;8.88;6.45;;;;;;;;;;5053799;28;20087;-72
2022/08/12 02:55:49;;;;;;;9.02;7.00;;;;;;;;;;5053695;28;20100;-73
2022/08/12 02:58:15;;;;;;;12.60;7.30;;;;;;;;;;5054157;28;20056;-73
2022/08/12 03:00:41;;;;;;;8.95;6.72;;;;;;;;;;5035812;28;20401;-74
2022/08/12 03:03:09;;;;;;;8.27;6.28;;;;;;;;;;5053825;28;20074;-73
2022/08/12 03:05:47;;;;;;;10.68;6.80;;;;;;;;;;5035880;28;20044;-73
2022/08/12 03:08:15;;;;;;;10.07;7.25;;;;;;;;;;5053991;28;20021;-73
2022/08/12 03:10:43;;;;;;;10.05;6.68;;;;;;;;;;5054227;28;20572;-74
2022/08/12 03:13:09;;;;;;;9.73;6.80;;;;;;;;;;5035803;28;20029;-75
2022/08/12 03:15:35;;;;;;;8.90;7.32;;;;;;;;;;5053873;28;20052;-74
2022/08/12 03:18:13;;;;;;;10.20;6.50;;;;;;;;;;5053792;28;20029;-73
2022/08/12 03:20:40;;;;;;;9.95;7.35;;;;;;;;;;5054030;28;20155;-74
2022/08/12 03:23:13;;;;;;;9.95;6.93;;;;;;;;;;5035615;28;20125;-73
2022/08/12 03:25:40;;;;;;;8.68;6.78;;;;;;;;;;5054094;28;20373;-74
2022/08/12 03:28:11;;;;;;;9.70;7.30;;;;;;;;;;5053695;28;20048;-74
2022/08/12 03:30:38;;;;;;;9.75;7.07;;;;;;;;;;5053341;28;20021;-73
2022/08/12 03:33:05;;;;;;;10.43;7.13;;;;;;;;;;5053327;28;20036;-73
2022/08/12 03:35:32;;;;;;;10.32;7.13;;;;;;;;;;5053346;28;20489;-73
2022/08/12 03:37:59;;;;;;;8.70;6.60;;;;;;;;;;5053301;28;20493;-72
2022/08/12 04:02:40;;;;;;;8.43;6.97;;;;;;;;;;5053112;28;20079;-73
2022/08/12 04:05:07;;;;;;;11.85;7.55;;;;;;;;;;5052997;28;20478;-74
2022/08/12 04:07:33;;;;;;;10.80;7.20;;;;;;;;;;5056112;28;20023;-73
2022/08/12 04:09:59;;;;;;;8.73;7.25;;;;;;;;;;5057593;28;20033;-73
2022/08/12 04:15:13;;;;;;;9.70;7.05;;;;;;;;;;5057538;28;20087;-73
2022/08/12 04:17:40;;;;;;;9.10;6.57;;;;;;;;;;5039068;28;20028;-74
2022/08/12 04:20:08;;;;;;;10.10;6.72;;;;;;;;;;5057097;28;20068;-73
2022/08/12 04:22:35;;;;;;;10.93;6.82;;;;;;;;;;5056894;28;20031;-73
2022/08/12 04:25:02;;;;;;;10.45;7.57;;;;;;;;;;5056769;28;20039;-73
2022/08/12 04:27:31;;;;;;;9.20;7.13;;;;;;;;;;5038835;28;20021;-73
2022/08/12 04:29:57;;;;;;;9.07;7.55;;;;;;;;;;5056699;28;20392;-73
2022/08/12 04:32:24;;;;;;;12.05;8.27;;;;;;;;;;5038760;28;20029;-73
2022/08/12 04:34:50;;;;;;;11.13;7.22;;;;;;;;;;5056884;28;20035;-73
2022/08/12 04:37:16;;;;;;;12.30;7.32;;;;;;;;;;5057147;28;20029;-74
2022/08/12 04:39:44;;;;;;;9.88;7.03;;;;;;;;;;5056730;28;20033;-72
2022/08/12 04:42:10;;;;;;;8.63;6.93;;;;;;;;;;5056502;28;20025;-73
2022/08/12 04:44:36;;;;;;;9.70;7.35;;;;;;;;;;5056497;28;20025;-73
2022/08/12 04:47:02;;;;;;;11.07;7.70;;;;;;;;;;5056362;28;20424;-73
2022/08/12 04:49:29;;;;;;;10.77;7.40;;;;;;;;;;5056348;28;20040;-74
2022/08/12 04:51:56;;;;;;;10.02;7.18;;;;;;;;;;5056638;28;20028;-73
2022/08/12 04:54:23;;;;;;;10.60;7.45;;;;;;;;;;5056085;28;20124;-73
2022/08/12 04:56:52;;;;;;;11.30;7.28;;;;;;;;;;5056232;28;20104;-74
2022/08/12 04:59:18;;;;;;;9.75;7.20;;;;;;;;;;5038206;28;20047;-73
2022/08/12 05:01:50;;;;;;;10.43;7.13;;;;;;;;;;5056100;28;20432;-73
2022/08/12 05:04:17;;;;;;;15.48;7.40;;;;;;;;;;5056147;28;20025;-73
2022/08/12 05:06:44;;;;;;;11.65;7.45;;;;;;;;;;5038177;28;20032;-74
2022/08/12 05:09:10;;;;;;;11.90;7.55;;;;;;;;;;5055996;28;20028;-74
2022/08/12 05:11:36;;;;;;;13.73;7.80;;;;;;;;;;5056743;28;20025;-73
2022/08/12 05:14:02;;;;;;;11.10;7.07;;;;;;;;;;5056210;28;20105;-73
2022/08/12 05:16:29;;;;;;;9.63;7.57;;;;;;;;;;5056149;28;20058;-73
2022/08/12 05:18:55;;;;;;;10.93;7.18;;;;;;;;;;5055483;28;20112;-73
2022/08/12 05:21:22;;;;;;;13.15;7.35;;;;;;;;;;5055753;28;20490;-73
2022/08/12 05:23:48;;;;;;;9.75;6.60;;;;;;;;;;5056064;28;20017;-74
2022/08/12 05:26:14;;;;;;;11.07;6.70;;;;;;;;;;5056220;28;20151;-73
2022/08/12 05:28:40;;;;;;;10.35;7.22;;;;;;;;;;5055658;28;20032;-73
2022/08/12 05:31:06;;;;;;;12.32;7.47;;;;;;;;;;5055864;28;20017;-72
2022/08/12 05:33:39;;;;;;;11.38;7.63;;;;;;;;;;5056073;28;20021;-73
2022/08/12 05:36:06;;;;;;;9.70;7.75;;;;;;;;;;5055516;28;20021;-74
2022/08/12 05:41:19;;;;;;;8.43;6.90;;;;;;;;;;5055970;28;20496;-72
2022/08/12 05:43:48;;;;;;;14.05;7.93;;;;;;;;;;5037480;28;20035;-74
2022/08/12 05:46:14;;;;;;;11.63;7.85;;;;;;;;;;5055320;28;20075;-73
2022/08/12 05:48:40;;;;;;;9.73;6.80;;;;;;;;;;5055264;28;20025;-73
2022/08/12 05:51:07;;;;;;;13.30;7.50;;;;;;;;;;5055495;28;20359;-72
2022/08/12 05:53:33;;;;;;;10.38;7.53;;;;;;;;;;5055161;28;20075;-74
2022/08/12 05:55:59;;;;;;;11.15;7.72;;;;;;;;;;5055670;28;20032;-73
2022/08/12 05:58:25;;;;;;;10.77;8.68;;;;;;;;;;5037169;28;20052;-73
2022/08/12 06:00:51;;;;;;;11.95;8.43;;;;;;;;;;5054865;28;20078;-73
2022/08/12 06:03:17;;;;;;;11.80;8.15;;;;;;;;;;5054978;28;20025;-73
2022/08/12 06:05:45;;;;;;;9.85;8.45;;;;;;;;;;5054914;28;20075;-73
2022/08/12 06:08:11;;;;;;;9.88;7.93;;;;;;;;;;5036978;28;20505;-73
2022/08/12 06:10:38;;;;;;;9.40;8.40;;;;;;;;;;5055384;28;20055;-73
2022/08/12 06:13:05;;;;;;;9.23;8.18;;;;;;;;;;5054779;28;20029;-73
2022/08/12 06:15:31;;;;;;;14.75;8.95;;;;;;;;;;5055263;28;20049;-73
2022/08/12 06:18:05;;;;;;;12.10;8.57;;;;;;;;;;5054710;28;20029;-73
2022/08/12 06:20:31;;;;;;;13.82;8.68;;;;;;;;;;5054613;28;20446;-73
2022/08/12 06:22:57;;;;;;;12.35;8.20;;;;;;;;;;5055183;28;20021;-73
2022/08/12 06:25:26;;;;;;;11.63;7.32;;;;;;;;;;5054856;28;20142;-74
2022/08/12 06:27:52;;;;;;;10.60;6.72;;;;;;;;;;5054802;28;20018;-73
2022/08/12 06:30:21;;;;;;;13.93;6.75;;;;;;;;;;5053808;28;20116;-73
2022/08/12 06:32:48;;;;;;;8.10;5.88;;;;;;;;;;5054397;28;20029;-74
2022/08/12 06:35:16;;;;;;;7.90;5.55;;;;;;;;;;5054357;28;20021;-74
2022/08/12 06:37:43;;;;;;;12.98;6.10;;;;;;;;;;5054807;28;20033;-73
2022/08/12 06:40:09;;;;;;;9.77;5.40;;;;;;;;;;5054710;28;20025;-74
2022/08/12 06:42:50;;;;;;;8.27;5.60;;;;;;;;;;5054502;28;20028;-74
2022/08/12 06:45:20;;;;;;;8.93;5.03;;;;;;;;;;5054240;28;20014;-74
2022/08/12 06:47:46;;;;;;;9.20;5.15;;;;;;;;;;5054437;28;20100;-74
2022/08/12 06:50:17;;;;;;;11.65;5.20;;;;;;;;;;5054372;28;20108;-74
2022/08/12 06:52:43;;;;;;;12.13;6.65;;;;;;;;;;5054120;28;20048;-74
2022/08/12 06:55:12;;;;;;;13.40;5.47;;;;;;;;;;5053634;28;20080;-73
2022/08/12 06:57:55;;;;;;;15.05;10.57;;;;;;;;;;5054416;28;20499;-74
2022/08/12 07:00:22;;;;;;;8.65;5.38;;;;;;;;;;5054013;28;20025;-73
2022/08/12 07:02:48;;;;;;;10.98;5.43;;;;;;;;;;5053870;28;20104;-76
2022/08/12 07:05:14;;;;;;;8.85;5.63;;;;;;;;;;5054349;28;20060;-74
2022/08/12 07:07:40;;;;;;;9.73;5.50;;;;;;;;;;5053767;28;20021;-74
2022/08/12 07:10:06;;;;;;;8.93;5.45;;;;;;;;;;5053728;28;20029;-75
2022/08/12 07:12:32;;;;;;;10.82;4.95;;;;;;;;;;5054501;28;20104;-74
2022/08/12 07:15:00;;;;;;;12.18;6.00;;;;;;;;;;5053640;28;20126;-73
2022/08/12 07:17:34;;;;;;;12.30;5.50;;;;;;;;;;5053655;28;20113;-75
2022/08/12 07:20:00;;;;;;;7.80;5.68;;;;;;;;;;5053865;28;20025;-73
2022/08/12 07:22:26;;;;;;;8.90;5.32;;;;;;;;;;5053526;28;20029;-71
2022/08/12 07:25:29;;;;;;;9.18;5.68;;;;;;;;;;5053770;28;20092;-70
2022/08/12 07:27:42;;;;;;;8.00;5.68;;;;;;;;;;5053151;28;20436;-70
2022/08/12 07:30:08;;;;;;;10.07;5.50;;;;;;;;;;5053450;28;20043;-69
2022/08/12 07:32:34;;;;;;;11.40;5.88;;;;;;;;;;5053396;28;20079;-70
2022/08/12 07:35:02;;;;;;;13.73;5.43;;;;;;;;;;5053349;28;20568;-70
2022/08/12 07:37:29;;;;;;;9.70;5.72;;;;;;;;;;5053318;28;20025;-70
2022/08/12 07:39:57;;;;;;;8.65;5.50;;;;;;;;;;5053060;28;20393;-70
2022/08/12 07:42:23;;;;;;;13.98;5.38;;;;;;;;;;5053173;28;20477;-70
2022/08/12 07:44:50;;;;;;;11.45;5.85;;;;;;;;;;5053183;28;20486;-70
2022/08/12 07:47:17;;;;;;;8.32;5.30;;;;;;;;;;5035291;28;20431;-70
2022/08/12 07:49:43;;;;;;;7.72;5.10;;;;;;;;;;5053402;28;20021;-70
2022/08/12 07:52:09;;;;;;;9.43;5.43;;;;;;;;;;5053140;28;20029;-69
2022/08/12 07:54:35;;;;;;;8.32;5.30;;;;;;;;;;5052929;28;20045;-70
2022/08/12 07:57:03;;;;;;;7.20;5.13;;;;;;;;;;5053091;28;20053;-74
2022/08/12 07:59:32;;;;;;;6.78;4.75;;;;;;;;;;5035086;28;20457;-70
2022/08/12 08:01:59;;;;;;;10.35;5.15;;;;;;;;;;5053012;28;20021;-80
2022/08/12 08:07:12;;;;;;;14.00;5.25;;;;;;;;;;5052745;28;20029;-70
2022/08/12 08:09:38;;;;;;;9.25;4.97;;;;;;;;;;5053243;28;20143;-70
2022/08/12 08:14:54;;;;;;;6.30;4.30;;;;;;;;;;5053000;28;20092;-69
2022/08/12 08:17:20;;;;;;;7.60;3.88;;;;;;;;;;5053252;28;20036;-70
2022/08/12 08:19:51;;;;;;;9.18;4.78;;;;;;;;;;5052893;28;20029;-71
2022/08/12 08:22:17;;;;;;;7.70;4.47;;;;;;;;;;5052941;28;20024;-70
2022/08/12 08:24:44;;;;;;;11.77;4.20;;;;;;;;;;5052823;28;20025;-70
2022/08/12 08:27:11;;;;;;;11.85;4.90;;;;;;;;;;5052863;28;20021;-69
2022/08/12 08:29:37;;;;;;;7.18;4.15;;;;;;;;;;5052841;28;20032;-71
2022/08/12 08:32:06;;;;;;;10.00;4.30;;;;;;;;;;5052737;28;20469;-69
2022/08/12 08:34:34;;;;;;;;;;;;;;;;;;5053219;28;20017;-68
2022/08/12 08:37:00;;;;;;;7.53;4.03;;;;;;;;;;5053074;28;19912;-70
2022/08/12 08:39:27;;;;;;;10.50;4.22;;;;;;;;;;5052913;28;20104;-70
2022/08/12 08:44:38;;;;;;;10.05;3.53;;;;;;;;;;5052678;28;20060;-71
2022/08/12 08:47:04;;;;;;;15.43;3.13;;;;;;;;;;5052591;28;20018;-70
2022/08/12 08:49:31;;;;;;;8.52;3.13;;;;;;;;;;5052632;28;20484;-69
2022/08/12 08:51:57;;;;;;;7.15;3.08;;;;;;;;;;5052632;28;20147;-71
2022/08/12 08:54:23;;;;;;;8.27;3.35;;;;;;;;;;5056048;28;20056;-69
2022/08/12 08:56:49;;;;;;;9.23;3.17;;;;;;;;;;5056823;28;20056;-70
2022/08/12 08:59:18;;;;;;;10.07;3.35;;;;;;;;;;5056145;28;20029;-70
2022/08/12 09:01:44;;;;;;;6.47;2.75;;;;;;;;;;5056144;28;20432;-70
2022/08/12 09:04:11;;;;;;;6.38;3.33;;;;;;;;;;5056129;28;20078;-71
2022/08/12 09:06:38;;;;;;;8.63;3.13;;;;;;;;;;5056112;28;20021;-71
2022/08/12 09:09:05;;;;;;;7.72;2.95;;;;;;;;;;5056326;28;20079;-70
2022/08/12 09:14:16;;;;;;;6.53;3.20;;;;;;;;;;5055954;28;20099;-72
2022/08/12 09:16:42;;;;;;;6.68;2.88;;;;;;;;;;5055884;28;20028;-70
2022/08/12 09:19:12;;;;;;;6.03;2.97;;;;;;;;;;5056059;28;20115;-71
2022/08/12 09:21:38;;;;;;;11.27;2.90;;;;;;;;;;5056092;28;20017;-71
2022/08/12 09:24:06;;;;;;;7.03;3.05;;;;;;;;;;5055767;28;20028;-70
2022/08/12 09:26:32;;;;;;;8.43;4.00;;;;;;;;;;5055721;28;20543;-71
2022/08/12 09:28:59;;;;;;;5.30;2.95;;;;;;;;;;5055615;28;20053;-72
2022/08/12 09:31:26;;;;;;;4.38;2.85;;;;;;;;;;5055560;28;20099;-70
2022/08/12 09:33:52;;;;;;;6.30;2.80;;;;;;;;;;5055583;28;20480;-72
2022/08/12 09:36:18;;;;;;;3.10;2.80;;;;;;;;;;5055491;28;20078;-71
2022/08/12 09:38:44;;;;;;;5.72;3.13;;;;;;;;;;5055920;28;20036;-72
2022/08/12 09:41:14;;;;;;;4.72;2.67;;;;;;;;;;5055419;28;20028;-71
2022/08/12 09:46:27;;;;;;;7.30;3.00;;;;;;;;;;5055336;28;20032;-70
2022/08/12 09:48:53;;;;;;;4.28;2.65;;;;;;;;;;5055316;28;20025;-72
2022/08/12 09:51:19;;;;;;;4.25;2.70;;;;;;;;;;5055499;28;20497;-71
2022/08/12 09:53:46;;;;;;;6.03;3.00;;;;;;;;;;5054997;28;20053;-71
2022/08/12 09:56:16;;;;;;;4.47;2.78;;;;;;;;;;5055144;28;20028;-71
2022/08/12 09:58:45;;;;;;;2.85;2.58;;;;;;;;;;5037184;28;20035;-70
2022/08/12 10:01:11;;;;;;;4.30;2.75;;;;;;;;;;5037077;28;20025;-71
2022/08/12 10:03:37;;;;;;;6.35;3.42;;;;;;;;;;5054983;28;20032;-72
2022/08/12 10:06:05;;;;;;;5.45;3.17;;;;;;;;;;5054973;28;20017;-70
2022/08/12 10:08:32;;;;;;;6.38;3.25;;;;;;;;;;5054953;28;20036;-69
2022/08/12 10:13:45;;;;;;;7.43;2.83;;;;;;;;;;5055174;28;20121;-71
2022/08/12 10:16:17;;;;;;;5.25;2.90;;;;;;;;;;5036873;28;20396;-72
2022/08/12 10:18:48;;;;;;;5.30;2.85;;;;;;;;;;5055188;28;20033;-72
2022/08/12 10:21:18;;;;;;;6.35;3.20;;;;;;;;;;5054997;28;20044;-70
2022/08/12 10:23:45;;;;;;;8.35;2.95;;;;;;;;;;5054982;28;20120;-70
2022/08/12 10:31:45;;;;;;;6.20;3.30;;;;;;;;;;5055089;28;20087;-70
2022/08/12 10:34:15;;;;;;;9.85;3.33;;;;;;;;;;5054763;28;20082;-70
2022/08/12 10:36:42;;;;;;;4.30;3.10;;;;;;;;;;5054364;28;20408;-72
2022/08/12 10:39:09;;;;;;;8.52;3.20;;;;;;;;;;5054236;28;20484;-71
2022/08/12 10:44:21;;;;;;;7.25;2.92;;;;;;;;;;5054022;28;20063;-70
2022/08/12 10:46:47;;;;;;;4.75;3.00;;;;;;;;;;5054216;28;20116;-71
2022/08/12 10:49:13;;;;;;;5.93;2.97;;;;;;;;;;5054143;28;20053;-70
2022/08/12 10:51:39;;;;;;;5.95;3.05;;;;;;;;;;5054066;28;20036;-71
2022/08/12 10:54:05;;;;;;;3.97;2.90;;;;;;;;;;5053873;28;20055;-70
2022/08/12 10:56:33;;;;;;;5.88;3.42;;;;;;;;;;5053993;28;20040;-69
2022/08/12 10:58:59;;;;;;;4.70;3.10;;;;;;;;;;5036012;28;20032;-72
2022/08/12 11:01:26;;;;;;;6.38;2.85;;;;;;;;;;5053930;28;20449;-71
2022/08/12 11:03:53;;;;;;;8.07;3.10;;;;;;;;;;5053779;28;20048;-70
2022/08/12 11:06:20;;;;;;;7.43;3.00;;;;;;;;;;5053830;28;20017;-70
2022/08/12 11:08:47;;;;;;;6.43;3.08;;;;;;;;;;5053785;28;20107;-70
2022/08/12 11:11:19;;;;;;;4.78;3.00;;;;;;;;;;5053784;28;20028;-70
2022/08/12 11:13:45;;;;;;;8.40;3.30;;;;;;;;;;5035575;28;20028;-71
2022/08/12 11:16:12;;;;;;;3.75;2.80;;;;;;;;;;5053176;28;20021;-70
2022/08/12 11:18:39;;;;;;;9.23;3.50;;;;;;;;;;5053641;28;20027;-71
2022/08/12 11:21:05;;;;;;;4.80;3.03;;;;;;;;;;5053739;28;20029;-69
2022/08/12 11:23:31;;;;;;;5.45;2.90;;;;;;;;;;5054070;28;20083;-70
2022/08/12 11:25:57;;;;;;;7.35;3.20;;;;;;;;;;5053499;28;20104;-71
2022/08/12 11:28:23;;;;;;;5.30;3.08;;;;;;;;;;5053445;28;20079;-71
2022/08/12 11:30:49;;;;;;;6.13;3.10;;;;;;;;;;5053365;28;20546;-70
2022/08/12 11:33:15;;;;;;;6.55;2.72;;;;;;;;;;5053308;28;20107;-73
2022/08/12 11:35:42;;;;;;;5.60;3.25;;;;;;;;;;5053562;28;20037;-71
2022/08/12 11:38:08;;;;;;;5.97;3.20;;;;;;;;;;5035480;28;20033;-73
2022/08/12 11:40:34;;;;;;;7.63;3.10;;;;;;;;;;5053219;28;20028;-71
2022/08/12 11:43:00;;;;;;;4.53;3.15;;;;;;;;;;5053239;28;20028;-70
2022/08/12 11:45:27;;;;;;;7.25;2.92;;;;;;;;;;5053243;28;20017;-72
2022/08/12 11:47:54;;;;;;;6.45;3.45;;;;;;;;;;5053155;28;20108;-72
2022/08/12 11:50:20;;;;;;;5.15;2.97;;;;;;;;;;5053730;28;20078;-70
2022/08/12 11:52:47;;;;;;;6.13;3.20;;;;;;;;;;5053097;28;20033;-69
2022/08/12 11:55:13;;;;;;;6.75;2.97;;;;;;;;;;5053024;28;20059;-71
2022/08/12 11:57:52;;;;;;;5.00;3.20;;;;;;;;;;5053114;28;20032;-72
2022/08/12 12:00:18;;;;;;;7.90;2.83;;;;;;;;;;5053003;28;20025;-71
2022/08/12 12:02:44;;;;;;;6.07;3.15;;;;;;;;;;5035158;28;20029;-71
2022/08/12 12:05:10;;;;;;;4.70;2.85;;;;;;;;;;5053293;28;20049;-70
2022/08/12 12:07:39;;;;;;;5.43;3.25;;;;;;;;;;5053017;28;20381;-71
2022/08/12 12:10:06;;;;;;;8.70;2.95;;;;;;;;;;5053023;28;20481;-70
2022/08/12 12:12:32;;;;;;;15.35;3.33;;;;;;;;;;5053461;28;20052;-71
2022/08/12 12:14:59;;;;;;;3.65;3.10;;;;;;;;;;5052899;28;20025;-69
2022/08/12 12:17:25;;;;;;;6.20;2.88;;;;;;;;;;5052955;28;20466;-72
2022/08/12 12:19:52;;;;;;;5.05;2.88;;;;;;;;;;5053079;28;20469;-72
2022/08/12 12:22:18;;;;;;;5.18;3.38;;;;;;;;;;5053130;28;20029;-71
2022/08/12 12:24:46;;;;;;;5.13;2.97;;;;;;;;;;5053072;28;20031;-73
2022/08/12 12:27:12;;;;;;;8.20;3.05;;;;;;;;;;5053410;28;20017;-70
2022/08/12 12:29:38;;;;;;;4.70;2.78;;;;;;;;;;5038918;28;20370;-71
2022/08/12 12:32:05;;;;;;;6.40;3.08;;;;;;;;;;5056776;28;20025;-70
2022/08/12 12:34:31;;;;;;;9.07;3.13;;;;;;;;;;5038834;28;20397;-73
2022/08/12 12:36:57;;;;;;;7.20;3.20;;;;;;;;;;5056693;28;20029;-71
2022/08/12 12:39:23;;;;;;;3.55;3.08;;;;;;;;;;5056814;28;20437;-71
2022/08/12 12:41:49;;;;;;;6.32;3.00;;;;;;;;;;5056567;28;20100;-72
2022/08/12 12:44:15;;;;;;;5.80;3.58;;;;;;;;;;5038831;28;20031;-69
2022/08/12 12:46:41;;;;;;;5.88;3.10;;;;;;;;;;5056788;28;20029;-69
2022/08/12 12:49:07;;;;;;;3.70;2.80;;;;;;;;;;5056689;28;20028;-69
2022/08/12 12:51:33;;;;;;;4.63;3.00;;;;;;;;;;5056623;28;20029;-69
2022/08/12 12:53:59;;;;;;;5.22;3.13;;;;;;;;;;5047331;28;20059;-71
2022/08/12 12:56:25;;;;;;;5.35;3.10;;;;;;;;;;5076328;28;20028;-70
2022/08/12 12:58:52;;;;;;;5.43;3.13;;;;;;;;;;5074889;28;20404;-71
2022/08/12 13:01:20;;;;;;;4.72;3.10;;;;;;;;;;5076414;28;20054;-70
2022/08/12 13:03:47;;;;;;;6.23;3.10;;;;;;;;;;5076397;28;20040;-71
2022/08/12 13:06:13;;;;;;;5.25;2.83;;;;;;;;;;5076719;28;20028;-70
2022/08/12 13:08:39;;;;;;;4.85;3.10;;;;;;;;;;5076061;28;20031;-71
2022/08/12 13:11:06;;;;;;;4.57;2.92;;;;;;;;;;5076558;28;20021;-69
2022/08/12 13:13:35;;;;;;;4.65;2.90;;;;;;;;;;5076554;28;20032;-70
2022/08/12 13:16:02;;;;;;;4.07;2.60;;;;;;;;;;5076187;28;20028;-70
2022/08/12 13:18:35;;;;;;;3.13;2.60;;;;;;;;;;5076198;28;20050;-70
2022/08/12 13:21:01;;;;;;;6.22;3.00;;;;;;;;;;5075641;28;20340;-69
2022/08/12 13:23:27;;;;;;;4.70;2.90;;;;;;;;;;5075205;28;20025;-70
2022/08/12 13:25:54;;;;;;;3.80;2.90;;;;;;;;;;5075754;28;20032;-71
2022/08/12 13:28:20;;;;;;;4.72;3.08;;;;;;;;;;5075587;28;20477;-69
2022/08/12 13:30:48;;;;;;;4.60;3.08;;;;;;;;;;5073181;28;20485;-70
2022/08/12 13:33:14;;;;;;;5.28;2.88;;;;;;;;;;5075149;28;20366;-69
2022/08/12 13:35:41;;;;;;;5.20;3.25;;;;;;;;;;5075555;28;20063;-70
2022/08/12 13:38:09;;;;;;;4.75;2.70;;;;;;;;;;5074967;28;20473;-76
2022/08/12 13:40:35;;;;;;;7.35;2.83;;;;;;;;;;5075996;28;20027;-74
2022/08/12 13:43:05;;;;;;;5.35;3.35;;;;;;;;;;5075704;28;20029;-74
2022/08/12 13:45:32;;;;;;;6.07;3.13;;;;;;;;;;5075451;28;20032;-75
2022/08/12 13:48:00;;;;;;;4.57;2.97;;;;;;;;;;5075668;28;20035;-74
2022/08/12 13:50:32;;;;;;;5.07;2.97;;;;;;;;;;5075379;28;20020;-69
2022/08/12 13:53:00;;;;;;;6.18;3.25;;;;;;;;;;5075561;28;20060;-70
2022/08/12 13:55:26;;;;;;;4.10;2.80;;;;;;;;;;5056646;28;20072;-69
2022/08/12 13:57:53;;;;;;;6.00;2.70;;;;;;;;;;5055369;28;20108;-69
2022/08/12 14:00:20;;;;;;;6.15;2.95;;;;;;;;;;5055477;28;20442;-70
2022/08/12 14:02:46;;;;;;;5.88;2.85;;;;;;;;;;5055721;28;20021;-69
2022/08/12 14:05:13;;;;;;;3.63;3.00;;;;;;;;;;5055090;28;20079;-69
2022/08/12 14:07:52;;;;;;;5.97;3.35;;;;;;;;;;5054959;28;20385;-78
2022/08/12 14:10:37;;;;;;;9.18;3.08;;;;;;;;;;5055008;28;20035;-81
2022/08/12 14:13:08;;;;;;;5.95;3.20;;;;;;;;;;5037282;28;20029;-77
2022/08/12 14:15:35;;;;;;;4.65;2.90;;;;;;;;;;5036913;28;20025;-76
2022/08/12 14:18:18;;;;;;;5.22;3.03;;;;;;;;;;5054832;28;20032;-76
2022/08/12 14:21:04;;;;;;;6.53;3.40;;;;;;;;;;5054636;28;20029;-77
2022/08/12 14:23:34;;;;;;;5.03;3.00;;;;;;;;;;5036554;28;20025;-75
2022/08/12 14:26:01;;;;;;;5.20;3.22;;;;;;;;;;5055229;28;20017;-73
2022/08/12 14:28:31;;;;;;;4.72;3.30;;;;;;;;;;5054560;28;20048;-71
2022/08/12 14:30:59;;;;;;;4.57;3.08;;;;;;;;;;5054576;28;20017;-69
2022/08/12 14:33:35;;;;;;;4.65;3.03;;;;;;;;;;5036618;28;20029;-69
2022/08/12 14:36:02;;;;;;;5.18;3.22;;;;;;;;;;5054769;28;20067;-69
2022/08/12 14:38:29;;;;;;;4.78;3.08;;;;;;;;;;5054355;28;20029;-68
2022/08/12 14:40:57;;;;;;;4.30;3.30;;;;;;;;;;5054248;28;20029;-68
2022/08/12 14:43:27;;;;;;;6.10;3.10;;;;;;;;;;5054251;28;20032;-70
2022/08/12 14:45:55;;;;;;;4.38;3.00;;;;;;;;;;5054262;28;20021;-69
2022/08/12 14:48:21;;;;;;;5.25;2.80;;;;;;;;;;5054766;28;20513;-69
2022/08/12 14:50:48;;;;;;;8.43;3.13;;;;;;;;;;5053351;28;20063;-69
2022/08/12 14:53:16;;;;;;;3.20;2.88;;;;;;;;;;5053958;28;20033;-70
2022/08/12 14:55:44;;;;;;;3.20;2.90;;;;;;;;;;5054088;28;20481;-69
2022/08/12 14:58:11;;;;;;;4.22;3.03;;;;;;;;;;5054306;28;20025;-69
2022/08/12 15:03:27;;;;;;;5.97;3.45;;;;;;;;;;5053976;28;20127;-69
2022/08/12 15:05:59;;;;;;;5.03;3.17;;;;;;;;;;5054160;28;20472;-68
2022/08/12 15:08:26;;;;;;;4.90;3.20;;;;;;;;;;5054059;28;20025;-70
2022/08/12 15:10:52;;;;;;;9.10;2.92;;;;;;;;;;5053785;28;20035;-69
2022/08/12 15:13:19;;;;;;;5.85;3.42;;;;;;;;;;5054267;28;20051;-69
2022/08/12 15:15:45;;;;;;;6.82;3.35;;;;;;;;;;5053719;28;20032;-69
2022/08/12 15:18:13;;;;;;;5.30;3.25;;;;;;;;;;5053601;28;20051;-69
2022/08/12 15:20:40;;;;;;;5.28;3.17;;;;;;;;;;5053540;28;20048;-70
2022/08/12 15:23:07;;;;;;;6.00;3.17;;;;;;;;;;5053572;28;20494;-68
2022/08/12 15:25:34;;;;;;;4.38;3.22;;;;;;;;;;5053521;28;20486;-70
2022/08/12 15:28:00;;;;;;;6.88;3.40;;;;;;;;;;5053501;28;20060;-69
2022/08/12 15:30:27;;;;;;;6.43;3.30;;;;;;;;;;5053742;28;20029;-69
2022/08/12 15:32:54;;;;;;;6.63;3.38;;;;;;;;;;5053398;28;20082;-68
2022/08/12 15:35:20;;;;;;;4.72;3.28;;;;;;;;;;5053997;28;20021;-68
2022/08/12 15:37:58;;;;;;;8.23;3.58;;;;;;;;;;5053664;28;20036;-69
2022/08/12 15:40:25;;;;;;;6.25;3.58;;;;;;;;;;5053511;28;20025;-69
2022/08/12 15:42:52;;;;;;;8.18;3.45;;;;;;;;;;5053333;28;20430;-69
2022/08/12 15:45:19;;;;;;;5.47;3.22;;;;;;;;;;5053577;28;20024;-69
2022/08/12 15:47:46;;;;;;;3.58;3.15;;;;;;;;;;5053228;28;20052;-68
2022/08/12 15:50:12;;;;;;;10.05;3.83;;;;;;;;;;5053240;28;20481;-69
2022/08/12 15:52:38;;;;;;;4.40;3.15;;;;;;;;;;5053197;28;20112;-69
2022/08/12 15:55:07;;;;;;;4.80;3.35;;;;;;;;;;5052948;28;20077;-69
2022/08/12 15:57:33;;;;;;;6.88;3.33;;;;;;;;;;5053158;28;20037;-69
2022/08/12 15:59:59;;;;;;;5.93;3.85;;;;;;;;;;5035109;28;20029;-70
2022/08/12 16:02:28;;;;;;;7.43;3.70;;;;;;;;;;5057216;28;20087;-69
2022/08/12 16:04:54;;;;;;;5.88;3.33;;;;;;;;;;5059742;28;20021;-69
2022/08/12 16:07:23;;;;;;;6.28;3.47;;;;;;;;;;5059713;28;20028;-69
2022/08/12 16:09:49;;;;;;;;;;;;;;;;;;5042176;28;20028;-69
2022/08/12 16:12:15;;;;;;;7.32;3.78;;;;;;;;;;5060731;28;19904;-69
2022/08/12 16:14:41;;;;;;;5.55;3.10;;;;;;;;;;5060126;28;20021;-69
2022/08/12 16:17:08;;;;;;;5.93;3.70;;;;;;;;;;5059558;28;20029;-68
2022/08/12 16:19:35;;;;;;;8.75;3.53;;;;;;;;;;5059506;28;20029;-69
2022/08/12 16:22:01;;;;;;;7.30;3.58;;;;;;;;;;5059559;28;20043;-69
2022/08/12 16:24:27;;;;;;;7.57;3.63;;;;;;;;;;5059424;28;20032;-69
2022/08/12 16:26:53;;;;;;;4.78;3.30;;;;;;;;;;5059805;28;20024;-69
2022/08/12 16:29:28;;;;;;;7.35;4.20;;;;;;;;;;5059484;28;20032;-69
2022/08/12 16:31:54;;;;;;;10.68;3.60;;;;;;;;;;5041282;28;20078;-69
2022/08/12 16:34:20;;;;;;;4.80;3.60;;;;;;;;;;5059491;28;20082;-69
2022/08/12 16:36:50;;;;;;;8.07;3.85;;;;;;;;;;5059714;28;20029;-69
2022/08/12 16:39:16;;;;;;;7.97;3.63;;;;;;;;;;5059322;28;20031;-69
2022/08/12 16:41:42;;;;;;;6.43;3.47;;;;;;;;;;5059954;28;20028;-69